Time;durP1;ratioP1;P1;durP2;ratioP2;P2;SDS_P1;SDS_P2;PMS_P1;PMS_P2;Temp;Humidity;BMP_temperature;BMP_pressure;BME280_temperature;BME280_humidity;BME280_pressure;Samples;Min_cycle;Max_cycle;Signal;HPM_P1;HPM_P2
2023/04/18 00:01:03;;;;;;;3.00;2.17;;;;;6.50;96303.00;;;;5053634;28;20196;-66
2023/04/18 00:03:30;;;;;;;2.50;2.33;;;;;6.60;96311.00;;;;5053804;28;20199;-66
2023/04/18 00:05:59;;;;;;;2.43;2.00;;;;;6.60;96306.00;;;;5053287;28;20202;-66
2023/04/18 00:08:27;;;;;;;3.07;2.37;;;;;6.60;96305.00;;;;5053084;28;20223;-66
2023/04/18 00:10:54;;;;;;;1.77;1.67;;;;;6.60;96299.00;;;;5053166;28;20274;-67
2023/04/18 00:13:22;;;;;;;1.37;1.37;;;;;6.50;96299.00;;;;5035275;28;20196;-66
2023/04/18 00:15:52;;;;;;;1.50;1.40;;;;;6.40;96302.00;;;;5053727;28;20199;-66
2023/04/18 00:18:20;;;;;;;1.50;1.40;;;;;6.50;96297.00;;;;5053002;28;20220;-66
2023/04/18 00:20:48;;;;;;;1.47;1.33;;;;;6.40;96297.00;;;;5053163;28;20234;-66
2023/04/18 00:23:17;;;;;;;1.60;1.50;;;;;6.50;96288.00;;;;5053022;28;20250;-66
2023/04/18 00:25:44;;;;;;;2.87;1.43;;;;;6.50;96287.00;;;;5053035;28;20686;-66
2023/04/18 00:28:12;;;;;;;1.70;1.60;;;;;6.50;96288.00;;;;5052942;28;20208;-66
2023/04/18 00:30:39;;;;;;;1.07;1.07;;;;;6.50;96288.00;;;;5035088;28;20200;-67
2023/04/18 00:33:07;;;;;;;1.03;1.03;;;;;6.50;96295.00;;;;5035024;28;20273;-66
2023/04/18 00:35:36;;;;;;;1.80;1.07;;;;;6.50;96288.00;;;;5053173;28;20652;-66
2023/04/18 00:38:04;;;;;;;1.43;1.43;;;;;6.50;96285.00;;;;5052720;28;20230;-66
2023/04/18 00:40:33;;;;;;;2.33;2.23;;;;;6.50;96281.00;;;;5052870;28;20188;-66
2023/04/18 00:43:00;;;;;;;2.40;2.23;;;;;6.60;96276.00;;;;5053488;28;20547;-66
2023/04/18 00:45:28;;;;;;;5.70;2.83;;;;;6.50;96280.00;;;;5057049;28;20192;-66
2023/04/18 00:47:56;;;;;;;1.63;1.50;;;;;6.60;96288.00;;;;5057117;28;20577;-67
2023/04/18 00:50:24;;;;;;;2.43;1.43;;;;;6.60;96284.00;;;;5056903;28;20196;-66
2023/04/18 00:52:52;;;;;;;1.23;1.23;;;;;6.60;96272.00;;;;5057490;28;20196;-66
2023/04/18 00:55:20;;;;;;;1.23;1.23;;;;;6.60;96277.00;;;;5057137;28;20562;-66
2023/04/18 00:57:48;;;;;;;2.33;2.13;;;;;6.60;96273.00;;;;5056695;28;20219;-66
2023/04/18 01:00:16;;;;;;;1.50;1.50;;;;;6.60;96273.00;;;;5057503;28;20207;-66
2023/04/18 01:02:43;;;;;;;1.93;1.83;;;;;6.60;96273.00;;;;5057215;28;20257;-66
2023/04/18 01:05:11;;;;;;;1.60;1.50;;;;;6.70;96270.00;;;;5056938;28;20227;-66
2023/04/18 01:07:40;;;;;;;1.93;1.83;;;;;6.70;96272.00;;;;5056608;28;20214;-66
2023/04/18 01:10:08;;;;;;;4.27;2.80;;;;;6.60;96267.00;;;;5056541;28;20197;-66
2023/04/18 01:12:37;;;;;;;1.87;1.77;;;;;6.80;96263.00;;;;5056706;28;20200;-66
2023/04/18 01:15:07;;;;;;;2.97;2.77;;;;;6.70;96256.00;;;;5056436;28;20298;-66
2023/04/18 01:17:34;;;;;;;1.83;1.73;;;;;6.70;96266.00;;;;5056548;28;20234;-66
2023/04/18 01:20:04;;;;;;;2.37;1.80;;;;;6.70;96254.00;;;;5056644;28;20277;-66
2023/04/18 01:22:32;;;;;;;2.33;1.73;;;;;6.70;96251.00;;;;5056348;28;20199;-66
2023/04/18 01:25:06;;;;;;;2.43;2.27;;;;;6.70;96246.00;;;;5056251;28;20200;-66
2023/04/18 01:27:33;;;;;;;2.07;1.97;;;;;6.70;96247.00;;;;5056386;28;20290;-67
2023/04/18 01:30:01;;;;;;;2.13;2.03;;;;;6.70;96246.00;;;;5056201;28;20200;-67
2023/04/18 01:32:28;;;;;;;2.60;2.40;;;;;6.70;96249.00;;;;5056443;28;20253;-66
2023/04/18 01:34:55;;;;;;;2.97;2.73;;;;;6.60;96241.00;;;;5056111;28;20728;-66
2023/04/18 01:37:22;;;;;;;2.10;2.00;;;;;6.60;96243.00;;;;5055957;28;20215;-66
2023/04/18 01:39:50;;;;;;;1.50;1.37;;;;;6.60;96242.00;;;;5038169;28;20196;-67
2023/04/18 01:42:18;;;;;;;13.27;2.90;;;;;6.60;96237.00;;;;5056063;28;20185;-67
2023/04/18 01:44:46;;;;;;;2.57;2.37;;;;;6.60;96236.00;;;;5056438;28;20196;-65
2023/04/18 01:47:13;;;;;;;2.23;2.13;;;;;6.70;96232.00;;;;5055811;28;20683;-65
2023/04/18 01:49:45;;;;;;;2.37;2.27;;;;;6.70;96230.00;;;;5055798;28;20195;-67
2023/04/18 01:52:13;;;;;;;3.17;2.87;;;;;6.60;96230.00;;;;5056134;28;20189;-67
2023/04/18 01:54:40;;;;;;;2.70;2.50;;;;;6.60;96216.00;;;;5055632;28;20200;-65
2023/04/18 01:57:07;;;;;;;2.43;2.23;;;;;6.60;96215.00;;;;5055585;28;20212;-67
2023/04/18 01:59:36;;;;;;;2.03;1.93;;;;;6.60;96213.00;;;;5055593;28;20220;-66
2023/04/18 02:02:03;;;;;;;2.73;2.53;;;;;6.60;96213.00;;;;5055862;28;20196;-67
2023/04/18 02:04:31;;;;;;;2.80;2.47;;;;;6.60;96216.00;;;;5055567;28;20242;-67
2023/04/18 02:06:58;;;;;;;2.60;2.07;;;;;6.60;96219.00;;;;5055540;28;20333;-67
2023/04/18 02:09:25;;;;;;;3.77;3.00;;;;;6.60;96220.00;;;;5055555;28;20332;-65
2023/04/18 02:11:55;;;;;;;3.70;3.23;;;;;6.60;96227.00;;;;5037516;28;20762;-65
2023/04/18 02:14:22;;;;;;;1.83;1.73;;;;;6.70;96218.00;;;;5037394;28;20199;-65
2023/04/18 02:16:51;;;;;;;1.70;1.60;;;;;6.70;96223.00;;;;5037328;28;20219;-65
2023/04/18 02:19:18;;;;;;;1.97;1.87;;;;;6.70;96219.00;;;;5055191;28;20224;-66
2023/04/18 02:21:45;;;;;;;4.00;3.70;;;;;6.70;96221.00;;;;5055252;28;20296;-66
2023/04/18 02:24:13;;;;;;;1.93;1.83;;;;;6.70;96219.00;;;;5055438;28;20604;-66
2023/04/18 02:26:40;;;;;;;3.03;2.70;;;;;6.70;96223.00;;;;5037279;28;20203;-66
2023/04/18 02:29:07;;;;;;;10.20;2.83;;;;;6.60;96214.00;;;;5055091;28;20196;-66
2023/04/18 02:31:37;;;;;;;3.23;3.03;;;;;6.70;96216.00;;;;5037187;28;20287;-66
2023/04/18 02:34:05;;;;;;;2.50;2.30;;;;;6.70;96217.00;;;;5054972;28;20231;-66
2023/04/18 02:36:33;;;;;;;2.73;2.53;;;;;6.70;96214.00;;;;5036992;28;20246;-66
2023/04/18 02:39:00;;;;;;;4.30;2.73;;;;;6.70;96215.00;;;;5055013;28;20222;-66
2023/04/18 02:41:28;;;;;;;2.27;2.17;;;;;6.70;96218.00;;;;5054858;28;20200;-66
2023/04/18 02:43:55;;;;;;;1.50;1.47;;;;;6.70;96219.00;;;;5054802;28;20192;-66
2023/04/18 02:46:23;;;;;;;3.23;3.03;;;;;6.70;96206.00;;;;5054751;28;20188;-66
2023/04/18 02:48:50;;;;;;;2.23;2.13;;;;;6.80;96219.00;;;;5054618;28;20238;-66
2023/04/18 02:51:19;;;;;;;3.47;3.17;;;;;6.70;96220.00;;;;5054942;28;20192;-66
2023/04/18 02:53:47;;;;;;;1.57;1.40;;;;;6.70;96217.00;;;;5054641;28;20247;-66
2023/04/18 02:56:16;;;;;;;2.97;2.77;;;;;6.80;96217.00;;;;5054896;28;20192;-66
2023/04/18 02:58:44;;;;;;;4.33;2.87;;;;;6.70;96229.00;;;;5054420;28;20247;-66
2023/04/18 03:01:11;;;;;;;2.50;2.30;;;;;6.70;96214.00;;;;5054477;28;20215;-66
2023/04/18 03:03:38;;;;;;;2.23;2.13;;;;;6.70;96218.00;;;;5054685;28;20554;-66
2023/04/18 03:06:06;;;;;;;2.60;2.40;;;;;6.80;96213.00;;;;5054046;28;20530;-66
2023/04/18 03:08:35;;;;;;;2.60;2.40;;;;;6.80;96209.00;;;;5054189;28;20219;-66
2023/04/18 03:11:02;;;;;;;2.33;2.03;;;;;6.80;96212.00;;;;5054327;28;20235;-66
2023/04/18 03:13:29;;;;;;;2.27;2.10;;;;;6.90;96211.00;;;;5054551;28;20195;-66
2023/04/18 03:15:57;;;;;;;2.53;2.43;;;;;6.80;96206.00;;;;5054177;28;20202;-66
2023/04/18 03:18:24;;;;;;;2.77;2.67;;;;;6.70;96211.00;;;;5054030;28;20219;-65
2023/04/18 03:20:51;;;;;;;3.97;2.63;;;;;6.60;96203.00;;;;5054136;28;20227;-66
2023/04/18 03:23:19;;;;;;;4.07;2.47;;;;;6.70;96211.00;;;;5054012;28;20195;-66
2023/04/18 03:25:48;;;;;;;1.97;1.87;;;;;6.70;96197.00;;;;5054523;28;20265;-66
2023/04/18 03:28:15;;;;;;;1.83;1.73;;;;;6.70;96199.00;;;;5036241;28;20299;-66
2023/04/18 03:30:42;;;;;;;1.57;1.50;;;;;6.60;96209.00;;;;5053903;28;20555;-66
2023/04/18 03:33:10;;;;;;;2.67;2.50;;;;;6.60;96199.00;;;;5035968;28;20253;-66
2023/04/18 03:35:37;;;;;;;2.97;2.27;;;;;6.60;96192.00;;;;5054022;28;20200;-66
2023/04/18 03:38:04;;;;;;;2.20;2.10;;;;;6.60;96205.00;;;;5053693;28;20218;-66
2023/04/18 03:40:32;;;;;;;3.33;3.07;;;;;6.60;96198.00;;;;5053818;28;20200;-66
2023/04/18 03:43:00;;;;;;;2.00;1.90;;;;;6.60;96202.00;;;;5054239;28;20655;-65
2023/04/18 03:45:28;;;;;;;1.73;1.63;;;;;6.60;96200.00;;;;5035746;28;20199;-65
2023/04/18 03:47:55;;;;;;;2.63;2.43;;;;;6.50;96190.00;;;;5053584;28;20245;-66
2023/04/18 03:50:24;;;;;;;1.97;1.87;;;;;6.60;96200.00;;;;5053579;28;20267;-65
2023/04/18 03:52:52;;;;;;;1.60;1.53;;;;;6.50;96197.00;;;;5053957;28;20188;-66
2023/04/18 03:55:19;;;;;;;2.70;2.50;;;;;6.60;96196.00;;;;5053499;28;20278;-66
2023/04/18 03:57:47;;;;;;;3.03;2.73;;;;;6.60;96191.00;;;;5053309;28;20721;-66
2023/04/18 04:00:16;;;;;;;2.57;2.40;;;;;6.60;96200.00;;;;5053306;28;20235;-66
2023/04/18 04:02:44;;;;;;;2.97;1.80;;;;;6.60;96190.00;;;;5053558;28;20198;-66
2023/04/18 04:05:11;;;;;;;2.00;1.90;;;;;6.50;96188.00;;;;5053575;28;20234;-66
2023/04/18 04:07:38;;;;;;;2.27;2.17;;;;;6.60;96194.00;;;;5053109;28;20220;-67
2023/04/18 04:10:07;;;;;;;3.70;2.20;;;;;6.50;96198.00;;;;5053761;28;20249;-66
2023/04/18 04:12:34;;;;;;;2.10;1.90;;;;;6.60;96171.00;;;;5053201;28;20196;-66
2023/04/18 04:15:02;;;;;;;4.57;3.00;;;;;6.50;96202.00;;;;5053207;28;20196;-66
2023/04/18 04:17:30;;;;;;;2.50;2.30;;;;;6.60;96199.00;;;;5053317;28;20579;-66
2023/04/18 04:19:58;;;;;;;2.33;2.23;;;;;6.50;96200.00;;;;5034876;28;20303;-65
2023/04/18 04:22:25;;;;;;;1.83;1.73;;;;;6.50;96203.00;;;;5053576;28;20196;-65
2023/04/18 04:24:52;;;;;;;2.00;1.90;;;;;6.50;96206.00;;;;5053038;28;20281;-65
2023/04/18 04:27:20;;;;;;;2.57;2.43;;;;;6.50;96212.00;;;;5052943;28;20226;-66
2023/04/18 04:29:48;;;;;;;1.97;1.67;;;;;6.50;96219.00;;;;5053259;28;20271;-65
2023/04/18 04:32:15;;;;;;;6.20;2.37;;;;;6.50;96209.00;;;;5052903;28;20195;-65
2023/04/18 04:34:45;;;;;;;1.97;1.87;;;;;6.50;96212.00;;;;5053175;28;20198;-65
2023/04/18 04:37:12;;;;;;;3.77;3.00;;;;;6.50;96211.00;;;;5052833;28;20314;-65
2023/04/18 04:39:40;;;;;;;3.03;2.73;;;;;6.50;96214.00;;;;5052849;28;20294;-66
2023/04/18 04:42:08;;;;;;;2.00;1.90;;;;;6.50;96217.00;;;;5053121;28;20258;-65
2023/04/18 04:44:36;;;;;;;3.23;3.03;;;;;6.40;96211.00;;;;5052839;28;20194;-65
2023/04/18 04:47:03;;;;;;;2.97;2.77;;;;;6.40;96212.00;;;;5052770;28;20302;-65
2023/04/18 04:49:31;;;;;;;3.07;2.60;;;;;6.40;96215.00;;;;5053036;28;20203;-65
2023/04/18 04:52:01;;;;;;;3.13;2.93;;;;;6.40;96213.00;;;;5052780;28;20207;-65
2023/04/18 04:54:28;;;;;;;2.47;2.27;;;;;6.50;96221.00;;;;5053042;28;20184;-66
2023/04/18 04:56:56;;;;;;;1.50;1.40;;;;;6.40;96215.00;;;;5052657;28;20221;-65
2023/04/18 04:59:23;;;;;;;2.77;2.57;;;;;6.30;96219.00;;;;5053296;28;20228;-66
2023/04/18 05:01:51;;;;;;;2.27;2.17;;;;;6.30;96223.00;;;;5034718;28;20311;-66
2023/04/18 05:04:18;;;;;;;3.03;2.73;;;;;6.40;96221.00;;;;5052629;28;20199;-65
2023/04/18 05:06:46;;;;;;;13.70;2.60;;;;;6.30;96209.00;;;;5052665;28;20195;-66
2023/04/18 05:09:15;;;;;;;1.83;1.73;;;;;6.30;96219.00;;;;5052658;28;20187;-66
2023/04/18 05:11:42;;;;;;;2.20;2.10;;;;;6.20;96219.00;;;;5052580;28;20191;-66
2023/04/18 05:14:11;;;;;;;3.17;2.87;;;;;6.20;96232.00;;;;5052578;28;20253;-66
2023/04/18 05:16:38;;;;;;;3.17;2.87;;;;;6.30;96218.00;;;;5052391;28;20694;-66
2023/04/18 05:19:06;;;;;;;2.60;2.40;;;;;6.30;96223.00;;;;5052456;28;20230;-66
2023/04/18 05:21:33;;;;;;;2.07;1.90;;;;;6.30;96212.00;;;;5052795;28;20553;-66
2023/04/18 05:24:00;;;;;;;2.87;2.67;;;;;6.30;96214.00;;;;5052581;28;20199;-66
2023/04/18 05:26:29;;;;;;;3.17;2.97;;;;;6.20;96223.00;;;;5052339;28;20249;-66
2023/04/18 05:28:56;;;;;;;1.63;1.53;;;;;6.30;96217.00;;;;5052822;28;20184;-66
2023/04/18 05:31:24;;;;;;;2.00;1.90;;;;;6.40;96204.00;;;;5056228;28;20246;-66
2023/04/18 05:33:52;;;;;;;3.67;2.97;;;;;6.50;96211.00;;;;5056054;28;20603;-66
2023/04/18 05:36:19;;;;;;;1.87;1.77;;;;;6.50;96210.00;;;;5056161;28;20196;-66
2023/04/18 05:38:46;;;;;;;3.07;2.87;;;;;6.40;96218.00;;;;5038051;28;20228;-66
2023/04/18 05:41:14;;;;;;;2.27;2.17;;;;;6.50;96223.00;;;;5056078;28;20200;-66
2023/04/18 05:43:42;;;;;;;5.00;3.60;;;;;6.50;96231.00;;;;5038090;28;20294;-66
2023/04/18 05:46:11;;;;;;;2.63;2.43;;;;;6.30;96232.00;;;;5055943;28;20314;-65
2023/04/18 05:48:38;;;;;;;2.37;2.20;;;;;6.40;96248.00;;;;5056060;28;20218;-65
2023/04/18 05:51:06;;;;;;;1.97;1.87;;;;;6.30;96248.00;;;;5055898;28;20199;-66
2023/04/18 05:53:33;;;;;;;3.33;3.03;;;;;6.30;96252.00;;;;5055810;28;20211;-65
2023/04/18 05:56:00;;;;;;;4.47;2.97;;;;;6.40;96239.00;;;;5055753;28;20264;-65
2023/04/18 05:58:28;;;;;;;4.33;3.70;;;;;6.30;96237.00;;;;5055655;28;20219;-65
2023/04/18 06:00:57;;;;;;;2.77;2.57;;;;;6.30;96254.00;;;;5037684;28;20693;-66
2023/04/18 06:03:24;;;;;;;4.00;3.53;;;;;6.30;96250.00;;;;5055598;28;20195;-65
2023/04/18 06:05:52;;;;;;;2.80;2.60;;;;;6.30;96256.00;;;;5037547;28;20198;-66
2023/04/18 06:08:19;;;;;;;1.57;1.53;;;;;6.40;96259.00;;;;5055289;28;20221;-65
2023/04/18 06:10:46;;;;;;;5.47;3.20;;;;;6.50;96255.00;;;;5055396;28;20660;-66
2023/04/18 06:13:14;;;;;;;2.87;2.67;;;;;6.40;96255.00;;;;5055377;28;20255;-66
2023/04/18 06:15:41;;;;;;;3.40;3.20;;;;;6.50;96252.00;;;;5055573;28;20565;-66
2023/04/18 06:18:10;;;;;;;3.53;3.23;;;;;6.60;96244.00;;;;5055404;28;20218;-66
2023/04/18 06:20:37;;;;;;;5.17;2.07;;;;;6.60;96253.00;;;;5055461;28;20562;-66
2023/04/18 06:23:05;;;;;;;3.07;2.87;;;;;6.80;96243.00;;;;5055463;28;20202;-66
2023/04/18 06:25:32;;;;;;;2.67;2.47;;;;;6.90;96247.00;;;;5055208;28;20206;-66
2023/04/18 06:28:00;;;;;;;2.47;2.27;;;;;6.80;96243.00;;;;5055059;28;20222;-66
2023/04/18 06:30:27;;;;;;;1.73;1.67;;;;;6.70;96247.00;;;;5055515;28;20569;-66
2023/04/18 06:32:54;;;;;;;1.40;1.40;;;;;6.80;96255.00;;;;5055583;28;20203;-65
2023/04/18 06:35:23;;;;;;;3.60;2.33;;;;;6.70;96261.00;;;;5055274;28;20199;-66
2023/04/18 06:37:51;;;;;;;2.27;2.17;;;;;6.70;96260.00;;;;5055106;28;20207;-64
2023/04/18 06:40:18;;;;;;;4.50;2.90;;;;;6.70;96265.00;;;;5032291;28;20227;-60
2023/04/18 06:42:46;;;;;;;2.47;2.37;;;;;6.70;96261.00;;;;5051968;28;20210;-61
2023/04/18 06:45:13;;;;;;;2.60;2.33;;;;;6.70;96271.00;;;;5038904;28;20207;-61
2023/04/18 06:47:41;;;;;;;1.87;1.77;;;;;6.70;96274.00;;;;5047705;28;20219;-61
2023/04/18 06:50:09;;;;;;;2.63;1.93;;;;;6.70;96271.00;;;;5043623;28;20200;-61
2023/04/18 06:52:42;;;;;;;2.33;2.23;;;;;6.80;96279.00;;;;5033504;28;20246;-61
2023/04/18 06:55:11;;;;;;;3.53;3.03;;;;;6.80;96273.00;;;;5047771;28;20537;-60
2023/04/18 06:57:39;;;;;;;3.23;2.23;;;;;6.90;96274.00;;;;5015822;28;20224;-62
2023/04/18 07:00:08;;;;;;;2.27;2.17;;;;;6.80;96267.00;;;;5053239;28;20663;-66
2023/04/18 07:02:37;;;;;;;3.33;2.07;;;;;6.80;96273.00;;;;5053010;28;20234;-66
2023/04/18 07:05:05;;;;;;;2.67;2.57;;;;;6.80;96274.00;;;;5050807;28;20191;-66
2023/04/18 07:07:33;;;;;;;3.03;2.83;;;;;6.80;96276.00;;;;5052637;28;20737;-66
2023/04/18 07:10:02;;;;;;;2.53;2.33;;;;;6.80;96276.00;;;;5052312;28;20678;-66
2023/04/18 07:12:29;;;;;;;1.80;1.70;;;;;6.80;96282.00;;;;5052412;28;20289;-66
2023/04/18 07:14:57;;;;;;;2.73;2.50;;;;;6.90;96275.00;;;;5052853;28;20557;-66
2023/04/18 07:17:24;;;;;;;1.87;1.77;;;;;6.90;96279.00;;;;5052617;28;20227;-66
2023/04/18 07:19:52;;;;;;;2.03;1.93;;;;;7.00;96276.00;;;;5052598;28;20322;-65
2023/04/18 07:22:19;;;;;;;2.27;2.17;;;;;7.00;96274.00;;;;5052884;28;20222;-65
2023/04/18 07:24:47;;;;;;;5.70;2.90;;;;;7.00;96277.00;;;;5052654;28;20747;-66
2023/04/18 07:27:15;;;;;;;3.80;2.60;;;;;7.00;96277.00;;;;5052497;28;20216;-66
2023/04/18 07:29:43;;;;;;;3.63;2.03;;;;;7.10;96281.00;;;;5045469;28;20215;-66
2023/04/18 07:32:10;;;;;;;3.33;3.13;;;;;7.10;96278.00;;;;5032432;28;20203;-66
2023/04/18 07:34:39;;;;;;;2.40;2.30;;;;;7.10;96274.00;;;;5032499;28;20204;-66
2023/04/18 07:37:06;;;;;;;1.80;1.70;;;;;7.10;96278.00;;;;5032299;28;20223;-66
2023/04/18 07:39:35;;;;;;;3.17;2.33;;;;;7.10;96273.00;;;;5013055;28;20684;-66
2023/04/18 07:42:03;;;;;;;2.03;1.93;;;;;7.10;96289.00;;;;5014548;28;20212;-66
2023/04/18 07:44:31;;;;;;;2.00;1.90;;;;;7.10;96293.00;;;;5032229;28;20195;-66
2023/04/18 07:46:59;;;;;;;2.57;2.37;;;;;7.20;96295.00;;;;5032078;28;20221;-66
2023/04/18 07:49:26;;;;;;;2.37;2.17;;;;;7.10;96295.00;;;;5040180;28;20581;-66
2023/04/18 07:51:54;;;;;;;3.07;2.67;;;;;7.10;96303.00;;;;5051871;28;20219;-66
2023/04/18 07:54:21;;;;;;;3.10;2.90;;;;;7.10;96294.00;;;;5034028;28;20677;-66
2023/04/18 07:56:49;;;;;;;4.43;3.47;;;;;7.10;96297.00;;;;5051837;28;20272;-66
2023/04/18 07:59:16;;;;;;;3.03;2.83;;;;;7.20;96293.00;;;;5051784;28;20204;-66
2023/04/18 08:01:45;;;;;;;3.30;3.00;;;;;7.20;96304.00;;;;5051803;28;20278;-66
2023/04/18 08:04:13;;;;;;;2.43;2.23;;;;;7.20;96300.00;;;;5051795;28;20204;-66
2023/04/18 08:06:41;;;;;;;2.13;1.77;;;;;7.30;96297.00;;;;5051599;28;20682;-66
2023/04/18 08:09:08;;;;;;;3.13;2.90;;;;;7.20;96305.00;;;;5051715;28;20214;-66
2023/04/18 08:11:37;;;;;;;2.77;2.67;;;;;7.30;96308.00;;;;5051706;28;20207;-66
2023/04/18 08:14:05;;;;;;;2.30;2.20;;;;;7.20;96306.00;;;;5051965;28;20297;-66
2023/04/18 08:16:32;;;;;;;1.83;1.73;;;;;7.20;96312.00;;;;5049885;28;20562;-66
2023/04/18 08:19:01;;;;;;;3.03;2.73;;;;;7.30;96319.00;;;;5051030;28;20559;-66
2023/04/18 08:21:28;;;;;;;1.23;1.23;;;;;7.30;96311.00;;;;5051489;28;20224;-66
2023/04/18 08:23:56;;;;;;;4.37;3.80;;;;;7.40;96309.00;;;;5050751;28;20203;-66
2023/04/18 08:26:23;;;;;;;2.77;2.57;;;;;7.50;96310.00;;;;5051090;28;20196;-66
2023/04/18 08:28:51;;;;;;;2.30;2.10;;;;;7.50;96316.00;;;;5051270;28;20220;-66
2023/04/18 08:31:18;;;;;;;2.77;2.57;;;;;7.50;96310.00;;;;5051063;28;20310;-66
2023/04/18 08:33:46;;;;;;;2.00;1.90;;;;;7.70;96314.00;;;;5051307;28;20200;-66
2023/04/18 08:36:14;;;;;;;2.90;2.70;;;;;7.70;96309.00;;;;5051363;28;20203;-66
2023/04/18 08:38:42;;;;;;;2.27;2.07;;;;;7.90;96318.00;;;;5032557;28;20227;-66
2023/04/18 08:41:09;;;;;;;4.53;3.23;;;;;7.70;96309.00;;;;5050521;28;20266;-66
2023/04/18 08:43:38;;;;;;;3.87;2.30;;;;;7.80;96317.00;;;;5051236;28;20232;-66
2023/04/18 08:46:06;;;;;;;1.80;1.70;;;;;7.80;96314.00;;;;5051083;28;20309;-67
2023/04/18 08:48:34;;;;;;;2.00;1.90;;;;;7.80;96322.00;;;;5051166;28;20243;-65
2023/04/18 08:51:01;;;;;;;2.67;2.10;;;;;7.90;96317.00;;;;5051171;28;20192;-65
2023/04/18 08:53:33;;;;;;;2.33;2.23;;;;;7.90;96316.00;;;;5051204;28;20200;-65
2023/04/18 08:56:01;;;;;;;2.43;2.33;;;;;8.10;96317.00;;;;5051461;28;20666;-65
2023/04/18 08:58:31;;;;;;;2.07;1.97;;;;;8.20;96319.00;;;;5026871;28;20358;-66
2023/04/18 09:00:58;;;;;;;2.37;2.17;;;;;8.20;96320.00;;;;5031167;28;20736;-66
2023/04/18 09:03:39;;;;;;;1.73;1.63;;;;;8.20;96321.00;;;;5031603;28;20233;-66
2023/04/18 09:06:08;;;;;;;2.13;2.03;;;;;8.20;96326.00;;;;5047159;28;20207;-66
2023/04/18 09:08:37;;;;;;;1.77;1.67;;;;;8.20;96318.00;;;;5052996;28;20702;-66
2023/04/18 09:11:27;;;;;;;2.10;1.93;;;;;8.30;96319.00;;;;5035094;28;20197;-66
2023/04/18 09:13:57;;;;;;;2.37;2.17;;;;;8.50;96330.00;;;;5035128;28;20251;-66
2023/04/18 09:16:28;;;;;;;2.97;2.77;;;;;8.40;96318.00;;;;5035076;28;20236;-66
2023/04/18 09:19:12;;;;;;;2.63;2.47;;;;;8.40;96325.00;;;;5034928;28;20306;-66
2023/04/18 09:21:40;;;;;;;2.47;2.27;;;;;8.40;96321.00;;;;5035111;28;20223;-65
2023/04/18 09:24:22;;;;;;;3.60;2.17;;;;;8.60;96321.00;;;;5034744;28;20694;-65
2023/04/18 09:26:52;;;;;;;2.30;1.97;;;;;8.70;96318.00;;;;5034769;28;20220;-65
2023/04/18 09:29:21;;;;;;;1.50;1.43;;;;;8.80;96321.00;;;;5035002;28;20219;-65
2023/04/18 09:31:59;;;;;;;3.60;2.77;;;;;8.80;96327.00;;;;5034725;28;20197;-65
2023/04/18 09:34:27;;;;;;;2.93;2.27;;;;;8.70;96331.00;;;;5033835;28;20292;-65
2023/04/18 09:37:13;;;;;;;3.10;2.87;;;;;8.80;96324.00;;;;5034568;28;20558;-65
2023/04/18 09:39:43;;;;;;;2.90;2.17;;;;;8.90;96322.00;;;;5034337;28;20200;-65
2023/04/18 09:42:11;;;;;;;2.50;2.30;;;;;9.00;96320.00;;;;5034505;28;20701;-66
2023/04/18 09:44:57;;;;;;;2.00;1.90;;;;;9.10;96326.00;;;;5034531;28;20205;-66
2023/04/18 09:47:24;;;;;;;2.53;2.40;;;;;9.30;96323.00;;;;5034287;28;20220;-65
2023/04/18 09:49:52;;;;;;;2.93;2.73;;;;;9.50;96322.00;;;;5034282;28;20246;-65
2023/04/18 09:52:20;;;;;;;5.30;1.97;;;;;9.60;96331.00;;;;5034294;28;20262;-66
2023/04/18 09:54:53;;;;;;;3.10;2.83;;;;;9.60;96326.00;;;;5034270;28;20204;-65
2023/04/18 09:57:21;;;;;;;3.30;1.80;;;;;9.70;96324.00;;;;5048626;28;20270;-65
2023/04/18 09:59:55;;;;;;;2.03;1.93;;;;;9.60;96324.00;;;;5054255;28;20204;-65
2023/04/18 10:02:24;;;;;;;2.57;2.37;;;;;9.50;96325.00;;;;5030612;28;20601;-65
2023/04/18 10:04:54;;;;;;;2.77;2.57;;;;;9.50;96319.00;;;;5034097;28;20200;-65
2023/04/18 10:07:23;;;;;;;2.30;2.20;;;;;9.50;96319.00;;;;5030452;28;20235;-65
2023/04/18 10:09:52;;;;;;;2.80;2.60;;;;;9.50;96322.00;;;;5033943;28;20208;-65
2023/04/18 10:12:20;;;;;;;3.67;3.37;;;;;9.50;96316.00;;;;5015848;28;20254;-65
2023/04/18 10:14:48;;;;;;;3.37;3.07;;;;;9.50;96319.00;;;;5033857;28;20193;-65
2023/04/18 10:17:15;;;;;;;3.47;3.17;;;;;9.60;96320.00;;;;5031651;28;20212;-65
2023/04/18 10:19:45;;;;;;;2.30;2.10;;;;;9.70;96317.00;;;;5033797;28;20665;-64
2023/04/18 10:22:12;;;;;;;3.13;2.87;;;;;9.80;96317.00;;;;5038815;28;20219;-65
2023/04/18 10:24:54;;;;;;;2.60;2.40;;;;;9.80;96312.00;;;;5033762;28;20307;-64
2023/04/18 10:27:54;;;;;;;2.40;2.27;;;;;9.90;96312.00;;;;5033746;28;20307;-63
2023/04/18 10:30:52;;;;;;;2.60;2.40;;;;;10.00;96309.00;;;;5037613;28;20196;-62
2023/04/18 10:33:25;;;;;;;2.53;2.33;;;;;10.30;96306.00;;;;5053407;28;20250;-64
2023/04/18 10:36:12;;;;;;;4.27;3.83;;;;;10.70;96309.00;;;;5039295;28;20192;-62
2023/04/18 10:38:44;;;;;;;3.17;2.97;;;;;11.00;96312.00;;;;5030274;28;20572;-62
2023/04/18 10:41:22;;;;;;;2.43;2.33;;;;;11.30;96318.00;;;;5015603;28;20271;-62
2023/04/18 10:44:17;;;;;;;2.97;2.57;;;;;11.60;96313.00;;;;5047144;28;20203;-64
2023/04/18 10:47:21;;;;;;;2.57;2.43;;;;;11.70;96305.00;;;;5053054;28;20196;-64
2023/04/18 10:50:05;;;;;;;2.43;2.20;;;;;11.80;96313.00;;;;5053490;28;20192;-63
2023/04/18 10:52:32;;;;;;;3.90;3.60;;;;;11.80;96307.00;;;;5053333;28;20617;-64
2023/04/18 10:55:13;;;;;;;4.30;2.90;;;;;11.70;96295.00;;;;5053415;28;20200;-64
2023/04/18 10:57:41;;;;;;;2.83;2.07;;;;;11.90;96293.00;;;;5041659;28;20621;-64
2023/04/18 11:00:11;;;;;;;1.73;1.63;;;;;12.00;96292.00;;;;5052586;28;20586;-66
2023/04/18 11:02:40;;;;;;;2.30;2.20;;;;;12.20;96296.00;;;;5030324;28;20567;-66
2023/04/18 11:05:09;;;;;;;1.93;1.80;;;;;12.40;96291.00;;;;5032927;28;20201;-66
2023/04/18 11:07:38;;;;;;;2.40;2.30;;;;;12.70;96279.00;;;;5032711;28;20233;-66
2023/04/18 11:10:07;;;;;;;3.60;3.13;;;;;12.60;96279.00;;;;5032875;28;20205;-66
2023/04/18 11:12:36;;;;;;;2.43;1.87;;;;;13.20;96284.00;;;;5032793;28;20204;-66
2023/04/18 11:15:09;;;;;;;1.87;1.73;;;;;13.40;96268.00;;;;5032781;28;20201;-66
2023/04/18 11:17:39;;;;;;;2.43;2.33;;;;;13.40;96286.00;;;;5041310;28;20238;-66
2023/04/18 11:20:09;;;;;;;1.60;1.50;;;;;13.60;96285.00;;;;5052587;28;20258;-66
2023/04/18 11:22:47;;;;;;;2.67;2.47;;;;;13.30;96278.00;;;;5052486;28;20216;-66
2023/04/18 11:25:15;;;;;;;1.33;1.30;;;;;13.10;96276.00;;;;5052477;28;20202;-66
2023/04/18 11:27:44;;;;;;;2.20;2.10;;;;;13.30;96281.00;;;;5051866;28;20227;-66
2023/04/18 11:30:12;;;;;;;4.43;2.37;;;;;13.30;96277.00;;;;5052256;28;20282;-66
2023/04/18 11:32:41;;;;;;;1.47;1.30;;;;;13.00;96284.00;;;;5052354;28;20191;-66
2023/04/18 11:35:10;;;;;;;1.03;1.03;;;;;12.90;96288.00;;;;5052255;28;20679;-66
2023/04/18 11:37:39;;;;;;;3.00;2.40;;;;;12.70;96279.00;;;;5034260;28;20220;-66
2023/04/18 11:40:09;;;;;;;2.90;1.97;;;;;12.70;96286.00;;;;5052211;28;20192;-66
2023/04/18 11:42:39;;;;;;;1.30;1.30;;;;;12.30;96290.00;;;;5051050;28;20224;-66
2023/04/18 11:45:11;;;;;;;1.40;1.37;;;;;12.50;96298.00;;;;5052173;28;20543;-66
2023/04/18 11:47:38;;;;;;;2.03;1.93;;;;;12.40;96293.00;;;;5052153;28;20785;-66
2023/04/18 11:50:09;;;;;;;1.73;1.63;;;;;12.30;96296.00;;;;5052159;28;20199;-66
2023/04/18 11:52:37;;;;;;;1.67;1.60;;;;;12.20;96294.00;;;;5052145;28;20242;-66
2023/04/18 11:55:17;;;;;;;2.67;2.37;;;;;12.30;96290.00;;;;5052047;28;20204;-67
2023/04/18 11:57:51;;;;;;;1.70;1.60;;;;;12.40;96292.00;;;;5052220;28;20220;-66
2023/04/18 12:00:21;;;;;;;2.53;2.33;;;;;12.40;96297.00;;;;5052024;28;20192;-66
2023/04/18 12:02:49;;;;;;;3.20;2.60;;;;;12.20;96294.00;;;;5051882;28;20220;-66
2023/04/18 12:05:27;;;;;;;1.57;1.53;;;;;12.20;96303.00;;;;5051873;28;20232;-66
2023/04/18 12:07:56;;;;;;;1.20;1.20;;;;;12.10;96296.00;;;;5051906;28;20232;-67
2023/04/18 12:10:26;;;;;;;1.80;1.53;;;;;12.20;96303.00;;;;5051810;28;20234;-66
2023/04/18 12:12:55;;;;;;;1.63;1.57;;;;;12.20;96293.00;;;;5051803;28;20203;-66
2023/04/18 12:15:25;;;;;;;1.40;1.40;;;;;12.30;96290.00;;;;5051747;28;20196;-67
2023/04/18 12:17:57;;;;;;;3.07;2.77;;;;;12.30;96294.00;;;;5051914;28;20223;-66
2023/04/18 12:20:33;;;;;;;1.53;1.47;;;;;12.30;96290.00;;;;5027536;28;20195;-66
2023/04/18 12:23:01;;;;;;;3.30;3.07;;;;;12.30;96288.00;;;;5013982;28;20212;-67
2023/04/18 12:25:28;;;;;;;2.00;1.83;;;;;12.40;96291.00;;;;5031678;28;20295;-67
2023/04/18 12:27:58;;;;;;;1.27;1.20;;;;;12.10;96284.00;;;;5031659;28;20220;-67
2023/04/18 12:30:27;;;;;;;1.90;1.80;;;;;12.00;96296.00;;;;5031857;28;20571;-67
2023/04/18 12:32:56;;;;;;;1.27;1.27;;;;;12.00;96295.00;;;;5031655;28;20193;-66
2023/04/18 12:35:26;;;;;;;1.53;1.43;;;;;12.00;96291.00;;;;5031578;28;20222;-67